Time;durP1;ratioP1;P1;durP2;ratioP2;P2;SDS_P1;SDS_P2;PMS_P1;PMS_P2;Temp;Humidity;BMP_temperature;BMP_pressure;BME280_temperature;BME280_humidity;BME280_pressure;Samples;Min_cycle;Max_cycle;Signal;HPM_P1;HPM_P2
2023/06/15 00:01:14;;;;;;;4.10;2.15;;;;;;;;;;4921863;28;20043;-82
2023/06/15 00:03:42;;;;;;;4.82;2.20;;;;;;;;;;4933801;28;20042;-82
2023/06/15 00:06:08;;;;;;;5.43;2.40;;;;;;;;;;4918074;28;20038;-84
2023/06/15 00:08:34;;;;;;;6.25;2.30;;;;;;;;;;4912110;29;20035;-83
2023/06/15 00:11:00;;;;;;;5.00;2.40;;;;;;;;;;4920539;28;20392;-83
2023/06/15 00:13:25;;;;;;;5.63;2.38;;;;;;;;;;4916923;28;20038;-83
2023/06/15 00:16:00;;;;;;;5.70;2.72;;;;;;;;;;4920108;28;20066;-82
2023/06/15 00:18:26;;;;;;;4.88;2.08;;;;;;;;;;4913561;28;20107;-84
2023/06/15 00:20:51;;;;;;;4.30;2.15;;;;;;;;;;4915833;28;20039;-84
2023/06/15 00:23:17;;;;;;;4.53;2.28;;;;;;;;;;4918899;28;20066;-82
2023/06/15 00:25:42;;;;;;;5.47;2.80;;;;;;;;;;4929042;28;20138;-82
2023/06/15 00:28:08;;;;;;;5.10;2.42;;;;;;;;;;4915822;28;20044;-82
2023/06/15 00:30:35;;;;;;;3.92;2.10;;;;;;;;;;4918805;28;20044;-82
2023/06/15 00:33:00;;;;;;;5.22;2.53;;;;;;;;;;4913742;29;20114;-81
2023/06/15 00:35:26;;;;;;;4.68;2.50;;;;;;;;;;4910605;28;20464;-81
2023/06/15 00:37:51;;;;;;;6.18;2.30;;;;;;;;;;4931909;28;20050;-83
2023/06/15 00:40:16;;;;;;;5.15;2.63;;;;;;;;;;4915571;28;20171;-82
2023/06/15 00:42:44;;;;;;;5.65;2.70;;;;;;;;;;4912543;28;20118;-82
2023/06/15 00:45:13;;;;;;;5.75;2.50;;;;;;;;;;4915110;28;20039;-82
2023/06/15 00:47:47;;;;;;;5.68;2.38;;;;;;;;;;4917341;28;20036;-82
2023/06/15 00:50:18;;;;;;;4.78;2.15;;;;;;;;;;4916576;28;20417;-83
2023/06/15 00:52:45;;;;;;;5.25;2.60;;;;;;;;;;4919772;28;20378;-83
2023/06/15 00:55:12;;;;;;;;;;;;;;;;;;4919917;28;20507;-82
2023/06/15 00:57:44;;;;;;;5.72;2.30;;;;;;;;;;4907798;29;20041;-83
2023/06/15 01:00:12;;;;;;;4.65;2.22;;;;;;;;;;4917535;28;20051;-83
2023/06/15 01:02:39;;;;;;;5.50;2.47;;;;;;;;;;4906460;28;20567;-85
2023/06/15 01:05:05;;;;;;;4.55;2.33;;;;;;;;;;4926923;28;20042;-83
2023/06/15 01:07:30;;;;;;;5.03;2.60;;;;;;;;;;4918461;29;20496;-85
2023/06/15 01:09:57;;;;;;;5.25;2.10;;;;;;;;;;4931439;28;20504;-83
2023/06/15 01:12:24;;;;;;;4.97;2.25;;;;;;;;;;4929508;28;20058;-83
2023/06/15 01:14:49;;;;;;;7.85;2.38;;;;;;;;;;4915234;28;20047;-84
2023/06/15 01:17:16;;;;;;;4.22;2.25;;;;;;;;;;4915166;28;20039;-84
2023/06/15 01:19:54;;;;;;;5.53;2.50;;;;;;;;;;4938944;28;20418;-83
2023/06/15 01:22:35;;;;;;;;;;;;;;;;;;4931237;28;20058;-85
2023/06/15 01:25:29;;;;;;;6.03;2.45;;;;;;;;;;4911898;29;20294;-84
2023/06/15 01:28:01;;;;;;;6.25;2.35;;;;;;;;;;4916003;28;20044;-83
2023/06/15 01:30:39;;;;;;;4.20;2.42;;;;;;;;;;4930077;28;20437;-84
2023/06/15 01:33:05;;;;;;;8.55;2.97;;;;;;;;;;4915530;28;20369;-83
2023/06/15 01:35:30;;;;;;;5.60;2.40;;;;;;;;;;4931505;28;20134;-83
2023/06/15 01:37:55;;;;;;;3.88;2.25;;;;;;;;;;4915861;28;20043;-83
2023/06/15 01:40:21;;;;;;;6.35;2.58;;;;;;;;;;4920802;28;20171;-82
2023/06/15 01:42:47;;;;;;;4.53;2.60;;;;;;;;;;4919466;28;20436;-83
2023/06/15 01:45:13;;;;;;;5.35;2.40;;;;;;;;;;4906707;28;20059;-82
2023/06/15 01:47:39;;;;;;;6.15;2.75;;;;;;;;;;4921433;28;20047;-83
2023/06/15 01:50:06;;;;;;;5.32;2.50;;;;;;;;;;4919290;28;20038;-83
2023/06/15 01:52:33;;;;;;;5.82;2.70;;;;;;;;;;4919313;29;20382;-82
2023/06/15 01:54:59;;;;;;;;;;;;;;;;;;4937126;28;20038;-83
2023/06/15 01:57:27;;;;;;;6.22;2.88;;;;;;;;;;4933583;28;19969;-83
2023/06/15 01:59:54;;;;;;;4.60;2.67;;;;;;;;;;4904978;28;20055;-84
2023/06/15 02:02:20;;;;;;;5.13;2.60;;;;;;;;;;4934750;28;20113;-83
2023/06/15 02:04:46;;;;;;;4.93;2.20;;;;;;;;;;4908684;28;20491;-84
2023/06/15 02:07:11;;;;;;;5.13;3.00;;;;;;;;;;4933015;28;20046;-84
2023/06/15 02:09:37;;;;;;;5.28;2.67;;;;;;;;;;4918328;28;20043;-83
2023/06/15 02:12:02;;;;;;;4.75;2.55;;;;;;;;;;4920201;29;20035;-82
2023/06/15 02:14:28;;;;;;;4.00;2.35;;;;;;;;;;4913792;28;20443;-83
2023/06/15 02:16:53;;;;;;;6.03;2.53;;;;;;;;;;4933640;28;20479;-82
2023/06/15 02:19:22;;;;;;;6.65;2.80;;;;;;;;;;4905414;28;20057;-82
2023/06/15 02:21:48;;;;;;;6.25;2.53;;;;;;;;;;4920588;28;20039;-82
2023/06/15 02:24:15;;;;;;;4.88;2.55;;;;;;;;;;4923081;28;20039;-81
2023/06/15 02:26:41;;;;;;;6.10;2.42;;;;;;;;;;4915924;28;20032;-82
2023/06/15 02:29:06;;;;;;;4.25;2.50;;;;;;;;;;4934494;28;20039;-83
2023/06/15 02:31:31;;;;;;;4.40;2.40;;;;;;;;;;4903640;29;20507;-83
2023/06/15 02:33:57;;;;;;;5.90;2.83;;;;;;;;;;4920956;28;20126;-83
2023/06/15 02:36:23;;;;;;;4.32;2.58;;;;;;;;;;4933611;28;22344;-83
2023/06/15 02:38:49;;;;;;;4.55;2.50;;;;;;;;;;4907125;28;20082;-83
2023/06/15 02:41:15;;;;;;;4.30;2.50;;;;;;;;;;4922090;28;20455;-82
2023/06/15 02:43:40;;;;;;;4.53;2.50;;;;;;;;;;4917765;28;20064;-83
2023/06/15 02:46:06;;;;;;;4.78;2.40;;;;;;;;;;4911298;28;20039;-83
2023/06/15 02:48:33;;;;;;;5.82;2.67;;;;;;;;;;4916857;29;20154;-81
2023/06/15 02:50:58;;;;;;;4.57;2.30;;;;;;;;;;4918709;28;20441;-82
2023/06/15 02:53:24;;;;;;;4.60;2.30;;;;;;;;;;4907831;28;20036;-82
2023/06/15 02:55:51;;;;;;;6.13;2.47;;;;;;;;;;4909862;28;20039;-81
2023/06/15 02:58:19;;;;;;;;;;;;;;;;;;4919216;28;20044;-82
2023/06/15 03:00:49;;;;;;;3.60;2.40;;;;;;;;;;4918546;28;19933;-82
2023/06/15 03:03:16;;;;;;;4.43;2.50;;;;;;;;;;4917407;28;20059;-82
2023/06/15 03:05:45;;;;;;;3.97;2.40;;;;;;;;;;4918436;28;20042;-83
2023/06/15 03:08:12;;;;;;;6.88;2.70;;;;;;;;;;4904326;28;20074;-82
2023/06/15 03:10:38;;;;;;;7.25;2.42;;;;;;;;;;4900132;28;20827;-82
2023/06/15 03:13:03;;;;;;;4.88;2.28;;;;;;;;;;4922893;28;20042;-83
2023/06/15 03:15:50;;;;;;;5.90;2.90;;;;;;;;;;4932969;28;20063;-83
2023/06/15 03:18:16;;;;;;;4.28;2.40;;;;;;;;;;4934426;28;20131;-82
2023/06/15 03:20:52;;;;;;;4.60;2.50;;;;;;;;;;4906648;28;20568;-82
2023/06/15 03:23:18;;;;;;;3.97;2.30;;;;;;;;;;4917804;28;20046;-83
2023/06/15 03:25:47;;;;;;;5.07;2.60;;;;;;;;;;4932271;28;20048;-83
2023/06/15 03:28:16;;;;;;;4.85;2.80;;;;;;;;;;4919420;28;20066;-84
2023/06/15 03:30:46;;;;;;;4.40;2.40;;;;;;;;;;4914484;28;20135;-83
2023/06/15 03:33:13;;;;;;;6.75;2.45;;;;;;;;;;4920605;28;20047;-83
2023/06/15 03:35:41;;;;;;;7.03;3.15;;;;;;;;;;4916024;28;20040;-83
2023/06/15 03:38:08;;;;;;;4.82;2.53;;;;;;;;;;4916801;28;20047;-84
2023/06/15 03:40:42;;;;;;;3.90;2.20;;;;;;;;;;4920370;28;20122;-87
2023/06/15 03:43:08;;;;;;;4.53;2.55;;;;;;;;;;4920894;28;20050;-87
2023/06/15 03:45:33;;;;;;;5.05;2.47;;;;;;;;;;4921449;28;20035;-87
2023/06/15 03:47:58;;;;;;;4.05;2.40;;;;;;;;;;4912094;29;20395;-87
2023/06/15 03:50:24;;;;;;;5.55;2.40;;;;;;;;;;4906340;28;20114;-87
2023/06/15 03:52:50;;;;;;;5.18;2.40;;;;;;;;;;4917531;28;20780;-87
2023/06/15 03:55:15;;;;;;;4.85;2.60;;;;;;;;;;4917904;28;20048;-87
2023/06/15 03:57:54;;;;;;;;;;;;;;;;;;;;;
2023/06/15 04:00:20;;;;;;;4.95;2.30;;;;;;;;;;4934814;28;20058;-88
2023/06/15 04:03:09;;;;;;;5.20;2.65;;;;;;;;;;4920382;28;20074;-87
2023/06/15 04:05:34;;;;;;;3.65;2.17;;;;;;;;;;4886235;29;21253;-87
2023/06/15 04:08:03;;;;;;;4.82;2.50;;;;;;;;;;4897709;29;20062;-87
2023/06/15 04:10:29;;;;;;;4.32;2.47;;;;;;;;;;4872203;29;20043;-87
2023/06/15 04:13:22;;;;;;;6.13;2.55;;;;;;;;;;4913410;28;20492;-87
2023/06/15 04:19:22;;;;;;;4.65;2.40;;;;;;;;;;4909951;28;20054;-88
2023/06/15 04:22:08;;;;;;;5.78;2.30;;;;;;;;;;4855307;29;20064;-88
2023/06/15 04:24:33;;;;;;;6.60;2.60;;;;;;;;;;4882045;28;20047;-88
2023/06/15 04:27:02;;;;;;;7.15;2.47;;;;;;;;;;4918688;29;20046;-83
2023/06/15 04:29:30;;;;;;;4.72;2.28;;;;;;;;;;4915502;28;20035;-82
2023/06/15 04:31:58;;;;;;;;;;;;;;;;;;4918988;28;20094;-82
2023/06/15 04:34:26;;;;;;;5.47;2.42;;;;;;;;;;4930477;28;19929;-82
2023/06/15 04:36:54;;;;;;;6.63;2.72;;;;;;;;;;4919100;29;20508;-82
2023/06/15 04:39:25;;;;;;;4.68;2.38;;;;;;;;;;4910610;28;20050;-82
2023/06/15 04:41:51;;;;;;;3.95;2.20;;;;;;;;;;4908182;28;20038;-82
2023/06/15 04:44:16;;;;;;;5.03;2.50;;;;;;;;;;4925283;28;20043;-82
2023/06/15 04:46:42;;;;;;;8.68;2.50;;;;;;;;;;4900150;28;20601;-81
2023/06/15 04:49:08;;;;;;;4.20;2.70;;;;;;;;;;4916177;28;20067;-80
2023/06/15 04:51:34;;;;;;;5.93;2.65;;;;;;;;;;4929079;28;20045;-82
2023/06/15 04:53:59;;;;;;;7.20;2.80;;;;;;;;;;4914243;29;20039;-81
2023/06/15 04:56:26;;;;;;;5.13;2.40;;;;;;;;;;4914349;28;20035;-81
2023/06/15 04:58:51;;;;;;;4.40;2.75;;;;;;;;;;4912806;28;20055;-81
2023/06/15 05:01:17;;;;;;;4.68;2.40;;;;;;;;;;4916743;28;20047;-81
2023/06/15 05:03:43;;;;;;;5.78;2.38;;;;;;;;;;4921357;28;20107;-82
2023/06/15 05:06:08;;;;;;;7.78;2.30;;;;;;;;;;4915924;28;20070;-81
2023/06/15 05:08:35;;;;;;;5.90;2.65;;;;;;;;;;4915808;28;20114;-82
2023/06/15 05:11:01;;;;;;;5.43;2.42;;;;;;;;;;4912613;29;20077;-81
2023/06/15 05:13:26;;;;;;;7.85;2.55;;;;;;;;;;4915016;28;20063;-81
2023/06/15 05:15:51;;;;;;;5.63;2.70;;;;;;;;;;4902938;28;20957;-81
2023/06/15 05:18:18;;;;;;;4.85;2.30;;;;;;;;;;4908699;28;20396;-81
2023/06/15 05:20:43;;;;;;;5.43;2.25;;;;;;;;;;4930095;28;20035;-80
2023/06/15 05:23:14;;;;;;;4.97;2.40;;;;;;;;;;4917397;28;20046;-80
2023/06/15 05:25:39;;;;;;;5.75;2.40;;;;;;;;;;4928617;28;20114;-81
2023/06/15 05:28:05;;;;;;;4.63;2.53;;;;;;;;;;4911800;28;20138;-82
2023/06/15 05:30:30;;;;;;;4.72;2.30;;;;;;;;;;4922673;28;20031;-84
2023/06/15 05:32:56;;;;;;;4.60;2.47;;;;;;;;;;4917992;28;20040;-82
2023/06/15 05:35:24;;;;;;;7.40;2.75;;;;;;;;;;4906697;28;20043;-82
2023/06/15 05:37:49;;;;;;;5.43;2.70;;;;;;;;;;4901808;28;20032;-83
2023/06/15 05:40:15;;;;;;;5.82;2.35;;;;;;;;;;4916702;28;20423;-81
2023/06/15 05:42:40;;;;;;;4.43;2.25;;;;;;;;;;4921787;28;20507;-81
2023/06/15 05:45:06;;;;;;;4.65;2.17;;;;;;;;;;4914214;28;20496;-81
2023/06/15 05:47:35;;;;;;;5.15;2.20;;;;;;;;;;4916391;29;20031;-81
2023/06/15 05:50:00;;;;;;;4.53;2.40;;;;;;;;;;4913668;29;20036;-83
2023/06/15 05:52:26;;;;;;;4.93;2.30;;;;;;;;;;4914436;29;20047;-80
2023/06/15 05:54:54;;;;;;;4.85;2.15;;;;;;;;;;4931073;28;20111;-81
2023/06/15 05:57:19;;;;;;;4.43;2.22;;;;;;;;;;4911694;28;20215;-83
2023/06/15 05:59:48;;;;;;;8.32;2.60;;;;;;;;;;4918882;28;20070;-81
2023/06/15 06:02:13;;;;;;;5.15;2.17;;;;;;;;;;4917956;28;20414;-81
2023/06/15 06:04:42;;;;;;;4.57;2.10;;;;;;;;;;4906201;28;20043;-82
2023/06/15 06:07:07;;;;;;;4.70;2.33;;;;;;;;;;4930543;28;20091;-82
2023/06/15 06:09:43;;;;;;;6.13;2.60;;;;;;;;;;4914623;29;20036;-82
2023/06/15 06:12:09;;;;;;;5.32;2.10;;;;;;;;;;4915194;28;20032;-81
2023/06/15 06:14:35;;;;;;;4.15;2.20;;;;;;;;;;4932101;28;20051;-82
2023/06/15 06:17:00;;;;;;;5.38;2.05;;;;;;;;;;4902379;29;20127;-82
2023/06/15 06:19:25;;;;;;;5.07;2.20;;;;;;;;;;4900743;28;20055;-81
2023/06/15 06:21:51;;;;;;;4.90;2.40;;;;;;;;;;4909146;28;20396;-83
2023/06/15 06:24:23;;;;;;;5.00;2.10;;;;;;;;;;4892509;28;20043;-81
2023/06/15 06:26:48;;;;;;;5.03;2.30;;;;;;;;;;4910359;28;20046;-81
2023/06/15 06:29:13;;;;;;;4.28;2.00;;;;;;;;;;4899835;28;20468;-82
2023/06/15 06:31:39;;;;;;;4.55;2.10;;;;;;;;;;4914350;28;20043;-81
2023/06/15 06:34:05;;;;;;;5.57;2.15;;;;;;;;;;4917270;28;20047;-82
2023/06/15 06:36:31;;;;;;;4.55;2.50;;;;;;;;;;4917093;29;20430;-81
2023/06/15 06:38:56;;;;;;;5.38;2.33;;;;;;;;;;4933985;28;20102;-82
2023/06/15 06:41:24;;;;;;;4.13;2.00;;;;;;;;;;4916615;28;20522;-82
2023/06/15 06:43:49;;;;;;;3.65;2.10;;;;;;;;;;4933201;28;20035;-83
2023/06/15 06:46:18;;;;;;;4.68;2.20;;;;;;;;;;4916498;28;20051;-81
2023/06/15 06:48:43;;;;;;;8.15;1.80;;;;;;;;;;4918835;28;20058;-81
2023/06/15 06:51:09;;;;;;;4.22;2.20;;;;;;;;;;4933294;28;20046;-81
2023/06/15 06:53:34;;;;;;;4.63;2.10;;;;;;;;;;4919674;29;20046;-80
2023/06/15 06:56:00;;;;;;;5.53;2.15;;;;;;;;;;4934074;28;20035;-81
2023/06/15 06:58:25;;;;;;;7.95;2.35;;;;;;;;;;4916929;28;20035;-81
2023/06/15 07:00:53;;;;;;;4.55;2.10;;;;;;;;;;4917624;28;20035;-80
2023/06/15 07:03:21;;;;;;;5.75;2.15;;;;;;;;;;4933266;28;20075;-81
2023/06/15 07:05:49;;;;;;;5.15;2.13;;;;;;;;;;4919019;28;20039;-80
2023/06/15 07:08:15;;;;;;;4.10;2.10;;;;;;;;;;4933309;28;20051;-81
2023/06/15 07:10:41;;;;;;;4.47;2.10;;;;;;;;;;4918330;28;20488;-80
2023/06/15 07:13:06;;;;;;;4.47;2.05;;;;;;;;;;4915500;28;20475;-81
2023/06/15 07:15:34;;;;;;;4.15;2.10;;;;;;;;;;4916748;28;20035;-80
2023/06/15 07:18:00;;;;;;;5.15;2.00;;;;;;;;;;4902776;29;20032;-81
2023/06/15 07:20:27;;;;;;;9.13;2.60;;;;;;;;;;4918624;28;20348;-81
2023/06/15 07:22:53;;;;;;;4.82;2.10;;;;;;;;;;4934504;28;20044;-81
2023/06/15 07:25:18;;;;;;;5.47;2.30;;;;;;;;;;4915399;28;20050;-81
2023/06/15 07:27:44;;;;;;;4.50;2.20;;;;;;;;;;4919755;28;20036;-81
2023/06/15 07:30:10;;;;;;;3.10;1.80;;;;;;;;;;4919908;28;20039;-81
2023/06/15 07:32:35;;;;;;;4.30;2.20;;;;;;;;;;4932374;28;20479;-81
2023/06/15 07:35:01;;;;;;;3.92;2.17;;;;;;;;;;4921459;29;20103;-81
2023/06/15 07:37:26;;;;;;;5.70;1.95;;;;;;;;;;4920138;28;20040;-81
2023/06/15 07:39:52;;;;;;;4.85;2.00;;;;;;;;;;4918195;28;20458;-81
2023/06/15 07:42:19;;;;;;;6.10;1.98;;;;;;;;;;4919123;28;20547;-81
2023/06/15 07:44:45;;;;;;;3.92;1.98;;;;;;;;;;4920964;28;20075;-82
2023/06/15 07:47:13;;;;;;;5.07;1.98;;;;;;;;;;4917990;28;20063;-81
2023/06/15 07:49:38;;;;;;;4.80;2.28;;;;;;;;;;4934581;28;20484;-81
2023/06/15 07:52:07;;;;;;;3.58;2.10;;;;;;;;;;4918454;29;20041;-80
2023/06/15 07:54:33;;;;;;;4.03;2.10;;;;;;;;;;4904872;29;20038;-81
2023/06/15 07:56:58;;;;;;;4.78;1.80;;;;;;;;;;4919559;28;20043;-81
2023/06/15 07:59:23;;;;;;;5.55;2.08;;;;;;;;;;4915657;28;20043;-81
2023/06/15 08:01:49;;;;;;;5.47;2.38;;;;;;;;;;4912469;28;20267;-81
2023/06/15 08:04:15;;;;;;;6.57;2.22;;;;;;;;;;4903884;29;20067;-81
2023/06/15 08:06:40;;;;;;;4.55;2.30;;;;;;;;;;4908898;28;20035;-81
2023/06/15 08:09:07;;;;;;;4.40;2.13;;;;;;;;;;4930669;28;20480;-81
2023/06/15 08:11:32;;;;;;;4.63;2.25;;;;;;;;;;4915345;29;20035;-81
2023/06/15 08:13:58;;;;;;;4.28;2.33;;;;;;;;;;4916965;28;20055;-81
2023/06/15 08:16:23;;;;;;;4.20;2.05;;;;;;;;;;4915961;28;20040;-81
2023/06/15 08:18:49;;;;;;;5.60;2.42;;;;;;;;;;4918900;28;20059;-81
2023/06/15 08:21:17;;;;;;;8.07;2.97;;;;;;;;;;4901196;28;20048;-80
2023/06/15 08:23:42;;;;;;;5.28;2.55;;;;;;;;;;4912318;28;20050;-82
2023/06/15 08:26:07;;;;;;;5.38;2.75;;;;;;;;;;4914795;29;20044;-81
2023/06/15 08:28:33;;;;;;;5.07;2.30;;;;;;;;;;4933627;29;20494;-81
2023/06/15 08:30:58;;;;;;;4.20;2.40;;;;;;;;;;4917191;29;20143;-80
2023/06/15 08:33:24;;;;;;;6.82;2.40;;;;;;;;;;4913245;28;20043;-81
2023/06/15 08:35:49;;;;;;;5.55;2.40;;;;;;;;;;4907805;28;20177;-81
2023/06/15 08:38:15;;;;;;;4.80;2.67;;;;;;;;;;4912697;28;20059;-82
2023/06/15 08:40:43;;;;;;;9.63;2.80;;;;;;;;;;4914254;28;20046;-80
2023/06/15 08:43:10;;;;;;;5.05;2.20;;;;;;;;;;4914477;28;20038;-81
2023/06/15 08:45:43;;;;;;;4.00;2.25;;;;;;;;;;4914366;28;20063;-81
2023/06/15 08:48:11;;;;;;;5.55;2.33;;;;;;;;;;4932545;28;20045;-81
2023/06/15 08:50:40;;;;;;;6.43;2.65;;;;;;;;;;4917809;28;20035;-81
2023/06/15 08:53:07;;;;;;;4.47;2.08;;;;;;;;;;4915488;28;20111;-82
2023/06/15 08:55:37;;;;;;;4.72;2.20;;;;;;;;;;4913765;29;20035;-81
2023/06/15 08:58:07;;;;;;;5.50;2.40;;;;;;;;;;4915078;29;20048;-81
2023/06/15 09:00:35;;;;;;;4.03;2.30;;;;;;;;;;4907787;28;20047;-81
2023/06/15 09:03:03;;;;;;;7.88;2.40;;;;;;;;;;4908966;28;20635;-82
2023/06/15 09:05:29;;;;;;;5.97;2.20;;;;;;;;;;4908917;28;20394;-82
2023/06/15 09:07:54;;;;;;;4.70;2.50;;;;;;;;;;4916542;28;20040;-82
2023/06/15 09:10:21;;;;;;;5.28;2.38;;;;;;;;;;4912130;28;20078;-83
2023/06/15 09:12:56;;;;;;;4.82;2.45;;;;;;;;;;4916075;28;20095;-80
2023/06/15 09:15:29;;;;;;;3.80;2.30;;;;;;;;;;4899538;28;20114;-81
2023/06/15 09:17:55;;;;;;;3.90;2.10;;;;;;;;;;4916888;28;20042;-81
2023/06/15 09:20:24;;;;;;;3.72;1.88;;;;;;;;;;4930404;28;20048;-81
2023/06/15 09:22:51;;;;;;;4.07;2.03;;;;;;;;;;4906452;28;20566;-82
2023/06/15 09:25:20;;;;;;;4.45;2.22;;;;;;;;;;4917929;28;20048;-81
2023/06/15 09:28:05;;;;;;;4.47;1.90;;;;;;;;;;4929895;28;20044;-81
2023/06/15 09:30:41;;;;;;;4.03;2.13;;;;;;;;;;4916968;28;20494;-81
2023/06/15 09:33:16;;;;;;;4.15;2.20;;;;;;;;;;4917310;28;20043;-81
2023/06/15 09:35:59;;;;;;;4.07;2.00;;;;;;;;;;4901203;28;20581;-82
2023/06/15 09:38:32;;;;;;;5.07;2.15;;;;;;;;;;4902528;28;20039;-82
2023/06/15 09:41:04;;;;;;;4.28;1.92;;;;;;;;;;4931703;28;20040;-81
2023/06/15 09:43:36;;;;;;;3.83;1.90;;;;;;;;;;4919699;28;20035;-82
2023/06/15 09:46:08;;;;;;;5.75;2.20;;;;;;;;;;4898779;28;20039;-81
2023/06/15 09:48:37;;;;;;;4.95;2.00;;;;;;;;;;4923937;28;20487;-81
2023/06/15 09:51:03;;;;;;;4.38;2.50;;;;;;;;;;4922135;28;20047;-80
2023/06/15 09:53:30;;;;;;;5.43;2.07;;;;;;;;;;4920079;28;20043;-82
2023/06/15 09:55:56;;;;;;;4.38;1.98;;;;;;;;;;4917173;28;20075;-81
2023/06/15 09:58:22;;;;;;;5.57;2.17;;;;;;;;;;4906982;28;20040;-81
2023/06/15 10:00:48;;;;;;;6.93;2.72;;;;;;;;;;4918674;28;20043;-81
2023/06/15 10:03:19;;;;;;;5.97;2.65;;;;;;;;;;4937481;28;20456;-81
2023/06/15 10:06:14;;;;;;;4.85;2.30;;;;;;;;;;4921330;28;20047;-81
2023/06/15 10:08:41;;;;;;;6.15;2.75;;;;;;;;;;4919065;28;20629;-81
2023/06/15 10:11:06;;;;;;;4.63;2.60;;;;;;;;;;4921062;28;20039;-80
2023/06/15 10:13:41;;;;;;;4.38;2.60;;;;;;;;;;4922053;29;20990;-81
2023/06/15 10:16:09;;;;;;;6.05;2.45;;;;;;;;;;4932710;28;20038;-79
2023/06/15 10:18:36;;;;;;;6.18;2.67;;;;;;;;;;4907758;29;20031;-81
2023/06/15 10:21:02;;;;;;;7.85;2.80;;;;;;;;;;4910239;29;20400;-80
2023/06/15 10:23:29;;;;;;;5.45;2.47;;;;;;;;;;4937001;28;20169;-81
2023/06/15 10:25:57;;;;;;;5.25;2.50;;;;;;;;;;4901507;28;20031;-80
2023/06/15 10:28:23;;;;;;;;;;;;;;;;;;4935845;28;20059;-81
2023/06/15 10:31:07;;;;;;;6.47;2.70;;;;;;;;;;4932968;28;21419;-81
2023/06/15 10:33:37;;;;;;;5.43;2.78;;;;;;;;;;4933274;29;20062;-81
2023/06/15 10:36:11;;;;;;;5.45;2.40;;;;;;;;;;4933748;28;20063;-80
2023/06/15 10:38:40;;;;;;;5.80;2.67;;;;;;;;;;4919201;28;20050;-80
2023/06/15 10:41:05;;;;;;;8.52;3.15;;;;;;;;;;4935729;28;20503;-80
2023/06/15 10:43:34;;;;;;;5.72;2.90;;;;;;;;;;4917080;29;20094;-81
2023/06/15 10:46:02;;;;;;;6.25;3.00;;;;;;;;;;4922856;28;20102;-81
2023/06/15 10:48:28;;;;;;;6.35;3.05;;;;;;;;;;4920171;29;20036;-81
2023/06/15 10:51:06;;;;;;;5.90;3.13;;;;;;;;;;4920840;28;20035;-80
2023/06/15 10:53:42;;;;;;;4.95;2.72;;;;;;;;;;4922048;28;20043;-81
2023/06/15 10:56:13;;;;;;;4.88;2.70;;;;;;;;;;4916328;28;20050;-80
2023/06/15 10:59:08;;;;;;;4.70;2.47;;;;;;;;;;4936194;28;20047;-81
2023/06/15 11:01:33;;;;;;;4.60;2.70;;;;;;;;;;4911687;28;21112;-80
2023/06/15 11:04:28;;;;;;;7.35;2.53;;;;;;;;;;4916941;28;20042;-81
2023/06/15 11:06:58;;;;;;;5.78;2.65;;;;;;;;;;4919114;28;20044;-81
2023/06/15 11:09:29;;;;;;;5.72;2.78;;;;;;;;;;4897430;28;20036;-81
2023/06/15 11:11:55;;;;;;;5.65;2.70;;;;;;;;;;4900218;28;20488;-83
2023/06/15 11:14:21;;;;;;;3.95;2.33;;;;;;;;;;4916096;28;20039;-81
2023/06/15 11:17:04;;;;;;;5.47;2.28;;;;;;;;;;4930077;28;20039;-81
2023/06/15 11:19:29;;;;;;;6.00;2.67;;;;;;;;;;4933404;28;20127;-81
2023/06/15 11:22:04;;;;;;;4.70;2.55;;;;;;;;;;4932577;28;20040;-82
2023/06/15 11:24:36;;;;;;;4.60;2.60;;;;;;;;;;4926935;28;20030;-81
2023/06/15 11:27:05;;;;;;;5.50;2.63;;;;;;;;;;4920271;29;20035;-81
2023/06/15 11:29:34;;;;;;;8.18;3.15;;;;;;;;;;4933290;28;20044;-82
2023/06/15 11:32:03;;;;;;;4.15;2.40;;;;;;;;;;4920987;28;20404;-81
2023/06/15 11:34:30;;;;;;;5.30;2.40;;;;;;;;;;4894230;28;20338;-81
2023/06/15 11:37:00;;;;;;;4.40;2.67;;;;;;;;;;4916402;29;20056;-81
2023/06/15 11:39:27;;;;;;;5.57;2.58;;;;;;;;;;4930337;28;20594;-81
2023/06/15 11:41:56;;;;;;;4.95;2.22;;;;;;;;;;4932709;28;20043;-81
2023/06/15 11:44:22;;;;;;;4.35;2.55;;;;;;;;;;4934101;28;20050;-81
2023/06/15 11:47:01;;;;;;;4.68;2.28;;;;;;;;;;4912390;28;20039;-80
2023/06/15 11:49:35;;;;;;;5.03;2.50;;;;;;;;;;4904687;28;20049;-81
2023/06/15 11:52:04;;;;;;;4.28;2.30;;;;;;;;;;4902181;28;20126;-80
2023/06/15 11:54:30;;;;;;;4.82;2.38;;;;;;;;;;4931278;28;20093;-81
2023/06/15 11:56:57;;;;;;;5.15;2.38;;;;;;;;;;4932522;28;21048;-81
2023/06/15 11:59:23;;;;;;;5.25;2.47;;;;;;;;;;4911705;28;20090;-82
2023/06/15 12:01:49;;;;;;;6.33;2.43;;;;;;;;;;4902325;28;20046;-81
2023/06/15 12:04:15;;;;;;;4.55;2.03;;;;;;;;;;4920157;28;20094;-81
2023/06/15 12:06:46;;;;;;;3.72;2.30;;;;;;;;;;4903875;28;20530;-83
2023/06/15 12:09:11;;;;;;;5.53;2.50;;;;;;;;;;4925122;28;20046;-80
2023/06/15 12:11:37;;;;;;;4.93;2.75;;;;;;;;;;4932018;28;20480;-81
2023/06/15 12:14:08;;;;;;;5.15;2.58;;;;;;;;;;4903806;29;20035;-80
2023/06/15 12:16:34;;;;;;;6.50;2.60;;;;;;;;;;4931304;28;20039;-82
2023/06/15 12:19:01;;;;;;;4.80;2.22;;;;;;;;;;4921402;28;20040;-81
2023/06/15 12:21:37;;;;;;;7.03;2.90;;;;;;;;;;4930590;28;21258;-82
2023/06/15 12:24:15;;;;;;;5.50;2.30;;;;;;;;;;4933060;28;20095;-79
2023/06/15 12:26:40;;;;;;;4.65;2.20;;;;;;;;;;4932730;28;20383;-80
2023/06/15 12:29:14;;;;;;;4.28;2.47;;;;;;;;;;4916303;29;20035;-80
2023/06/15 12:31:41;;;;;;;4.72;2.50;;;;;;;;;;4933721;28;20043;-80
2023/06/15 12:34:10;;;;;;;5.25;2.65;;;;;;;;;;4931674;28;20031;-80
2023/06/15 12:36:39;;;;;;;4.07;2.13;;;;;;;;;;4914925;29;20161;-81
2023/06/15 12:39:09;;;;;;;6.72;2.78;;;;;;;;;;4933233;28;20040;-79
2023/06/15 12:41:41;;;;;;;4.03;2.00;;;;;;;;;;4909802;29;20456;-80
2023/06/15 12:44:09;;;;;;;4.35;2.00;;;;;;;;;;4929377;28;20079;-79
2023/06/15 12:46:38;;;;;;;6.10;2.95;;;;;;;;;;4921229;28;20126;-80
2023/06/15 12:49:05;;;;;;;3.55;2.00;;;;;;;;;;4915074;29;20094;-80
2023/06/15 12:51:31;;;;;;;5.05;2.00;;;;;;;;;;4913642;29;20044;-81
2023/06/15 12:53:57;;;;;;;3.63;2.00;;;;;;;;;;4905291;28;20043;-80
2023/06/15 12:56:26;;;;;;;3.63;1.83;;;;;;;;;;4903980;28;20044;-80
2023/06/15 12:58:54;;;;;;;4.20;1.90;;;;;;;;;;4922510;28;20129;-81
2023/06/15 13:01:23;;;;;;;4.88;1.90;;;;;;;;;;4903815;28;20040;-82
2023/06/15 13:03:49;;;;;;;5.32;2.00;;;;;;;;;;4904468;28;20035;-81
2023/06/15 13:06:15;;;;;;;3.42;1.95;;;;;;;;;;4918727;28;20467;-81
2023/06/15 13:08:43;;;;;;;5.78;2.00;;;;;;;;;;4913506;28;20038;-82
2023/06/15 13:11:08;;;;;;;4.25;1.90;;;;;;;;;;4921694;28;20070;-81
2023/06/15 13:13:34;;;;;;;4.57;2.05;;;;;;;;;;4910641;29;20451;-82
2023/06/15 13:15:59;;;;;;;6.70;1.95;;;;;;;;;;4906202;29;20058;-81
2023/06/15 13:18:25;;;;;;;4.05;1.88;;;;;;;;;;4921868;28;20035;-81
2023/06/15 13:20:52;;;;;;;4.80;1.80;;;;;;;;;;4902504;28;20044;-82
2023/06/15 13:23:17;;;;;;;7.07;2.03;;;;;;;;;;4915910;28;20506;-81
2023/06/15 13:25:43;;;;;;;5.88;2.20;;;;;;;;;;4899558;28;20035;-79
2023/06/15 13:28:08;;;;;;;5.72;2.33;;;;;;;;;;4915035;28;20043;-81
2023/06/15 13:30:34;;;;;;;3.65;1.95;;;;;;;;;;4917092;28;20039;-82
2023/06/15 13:33:00;;;;;;;4.97;1.90;;;;;;;;;;4905270;29;20038;-81
2023/06/15 13:35:25;;;;;;;5.43;1.90;;;;;;;;;;4932570;28;20035;-82
2023/06/15 13:37:51;;;;;;;4.50;1.83;;;;;;;;;;4920470;28;20498;-82
2023/06/15 13:40:16;;;;;;;3.67;1.90;;;;;;;;;;4912829;28;20074;-82
2023/06/15 13:42:42;;;;;;;7.80;2.33;;;;;;;;;;4920641;28;20051;-82
2023/06/15 13:45:16;;;;;;;3.33;1.58;;;;;;;;;;4918396;28;20098;-82
2023/06/15 13:47:44;;;;;;;3.97;1.83;;;;;;;;;;4911095;28;20043;-82
2023/06/15 13:50:12;;;;;;;5.38;2.00;;;;;;;;;;4933215;28;20082;-82
2023/06/15 13:52:39;;;;;;;4.35;1.90;;;;;;;;;;4919436;28;20122;-82
2023/06/15 13:55:06;;;;;;;4.28;1.85;;;;;;;;;;4914778;29;20040;-82
2023/06/15 13:57:32;;;;;;;4.80;1.90;;;;;;;;;;4921034;29;20036;-81
2023/06/15 13:59:57;;;;;;;4.25;1.73;;;;;;;;;;4920155;28;20115;-81
2023/06/15 14:02:22;;;;;;;2.95;1.42;;;;;;;;;;4932785;28;20166;-82
2023/06/15 14:04:48;;;;;;;3.38;1.60;;;;;;;;;;4934815;28;20054;-83
2023/06/15 14:07:14;;;;;;;6.43;1.75;;;;;;;;;;4911821;28;20891;-80
2023/06/15 14:09:41;;;;;;;3.28;1.70;;;;;;;;;;4920567;28;20063;-80
2023/06/15 14:12:07;;;;;;;;;;;;;;;;;;4920332;29;20162;-80
2023/06/15 14:14:33;;;;;;;3.00;1.65;;;;;;;;;;4917963;29;20001;-81
2023/06/15 14:16:58;;;;;;;5.13;1.77;;;;;;;;;;4908216;28;20040;-81
2023/06/15 14:19:25;;;;;;;3.85;1.70;;;;;;;;;;4919007;28;20091;-81
2023/06/15 14:21:51;;;;;;;10.20;1.80;;;;;;;;;;4917710;28;20050;-81
2023/06/15 14:24:17;;;;;;;4.70;1.65;;;;;;;;;;4926504;28;20590;-81
2023/06/15 14:26:43;;;;;;;3.83;1.75;;;;;;;;;;4909152;28;20875;-81
2023/06/15 14:29:15;;;;;;;4.05;1.73;;;;;;;;;;4935088;28;20039;-80
2023/06/15 14:31:49;;;;;;;4.78;2.00;;;;;;;;;;4934569;28;20431;-81
2023/06/15 14:34:19;;;;;;;4.22;1.83;;;;;;;;;;4930864;28;20036;-81
2023/06/15 14:36:45;;;;;;;3.40;1.83;;;;;;;;;;4919213;28;20039;-81
2023/06/15 14:39:15;;;;;;;5.25;1.83;;;;;;;;;;4908440;28;20080;-80
2023/06/15 14:41:42;;;;;;;5.68;2.08;;;;;;;;;;4883332;28;20074;-82
2023/06/15 14:44:09;;;;;;;3.73;2.03;;;;;;;;;;4931430;29;20484;-82
2023/06/15 14:46:35;;;;;;;4.75;1.90;;;;;;;;;;4925038;28;20055;-83
2023/06/15 14:49:03;;;;;;;3.80;1.92;;;;;;;;;;4901293;28;20074;-83
2023/06/15 14:51:32;;;;;;;5.82;1.90;;;;;;;;;;4929890;28;20043;-85
2023/06/15 14:54:08;;;;;;;4.82;2.08;;;;;;;;;;4928028;28;20041;-89